sensor_id;sensor_type;location;lat;lon;timestamp;pressure;altitude;pressure_sealevel;temperature;humidity
8890;BME280;4481;43.406;24.454;2023-02-13T00:01:21;79986.44;;;-144.09;100.00
8890;BME280;4481;43.406;24.454;2023-02-13T00:03:47;80022.00;;;-144.09;100.00
8890;BME280;4481;43.406;24.454;2023-02-13T00:06:14;80011.53;;;-144.09;100.00
8890;BME280;4481;43.406;24.454;2023-02-13T00:08:40;80001.06;;;-144.09;100.00
8890;BME280;4481;43.406;24.454;2023-02-13T00:11:06;79984.34;;;-144.09;100.00
8890;BME280;4481;43.406;24.454;2023-02-13T00:13:33;80030.34;;;-144.09;100.00
8890;BME280;4481;43.406;24.454;2023-02-13T00:16:00;80022.00;;;-144.09;100.00
8890;BME280;4481;43.406;24.454;2023-02-13T00:18:27;80028.28;;;-144.09;100.00
8890;BME280;4481;43.406;24.454;2023-02-13T00:20:59;80028.28;;;-144.09;100.00
8890;BME280;4481;43.406;24.454;2023-02-13T00:23:25;80022.00;;;-144.09;100.00
8890;BME280;4481;43.406;24.454;2023-02-13T00:25:52;80022.00;;;-144.09;100.00
8890;BME280;4481;43.406;24.454;2023-02-13T00:28:18;80005.25;;;-144.09;100.00
8890;BME280;4481;43.406;24.454;2023-02-13T00:30:45;80003.16;;;-144.09;100.00
8890;BME280;4481;43.406;24.454;2023-02-13T00:33:11;80009.44;;;-144.09;100.00
8890;BME280;4481;43.406;24.454;2023-02-13T00:35:37;80026.19;;;-144.09;100.00
8890;BME280;4481;43.406;24.454;2023-02-13T00:38:03;79994.81;;;-144.09;100.00
8890;BME280;4481;43.406;24.454;2023-02-13T00:40:29;80019.91;;;-144.09;100.00
8890;BME280;4481;43.406;24.454;2023-02-13T00:42:56;80013.63;;;-144.09;100.00
8890;BME280;4481;43.406;24.454;2023-02-13T00:45:22;80024.09;;;-144.09;100.00
8890;BME280;4481;43.406;24.454;2023-02-13T00:47:48;80017.81;;;-144.09;100.00
8890;BME280;4481;43.406;24.454;2023-02-13T00:50:15;80003.16;;;-144.09;100.00
8890;BME280;4481;43.406;24.454;2023-02-13T00:52:41;80013.63;;;-144.09;100.00
8890;BME280;4481;43.406;24.454;2023-02-13T00:55:07;80024.09;;;-144.09;100.00
8890;BME280;4481;43.406;24.454;2023-02-13T00:57:33;80007.34;;;-144.09;100.00
8890;BME280;4481;43.406;24.454;2023-02-13T00:59:59;79988.53;;;-144.09;100.00
8890;BME280;4481;43.406;24.454;2023-02-13T01:02:25;80019.91;;;-144.09;100.00
8890;BME280;4481;43.406;24.454;2023-02-13T01:04:52;80015.72;;;-144.09;100.00
8890;BME280;4481;43.406;24.454;2023-02-13T01:07:18;80013.63;;;-144.09;100.00
8890;BME280;4481;43.406;24.454;2023-02-13T01:09:44;80005.25;;;-144.09;100.00
8890;BME280;4481;43.406;24.454;2023-02-13T01:12:11;79998.97;;;-144.09;100.00
8890;BME280;4481;43.406;24.454;2023-02-13T01:14:37;80022.00;;;-144.09;100.00
8890;BME280;4481;43.406;24.454;2023-02-13T01:17:03;80013.63;;;-144.09;100.00
8890;BME280;4481;43.406;24.454;2023-02-13T01:19:29;80034.53;;;-144.09;100.00
8890;BME280;4481;43.406;24.454;2023-02-13T01:21:56;79992.72;;;-144.09;100.00
8890;BME280;4481;43.406;24.454;2023-02-13T01:24:22;79996.91;;;-144.09;100.00
8890;BME280;4481;43.406;24.454;2023-02-13T01:26:48;79996.91;;;-144.09;100.00
8890;BME280;4481;43.406;24.454;2023-02-13T01:29:14;79992.72;;;-144.09;100.00
8890;BME280;4481;43.406;24.454;2023-02-13T01:31:40;79992.72;;;-144.09;100.00
8890;BME280;4481;43.406;24.454;2023-02-13T01:34:07;80005.25;;;-144.09;100.00
8890;BME280;4481;43.406;24.454;2023-02-13T01:36:33;80036.63;;;-144.09;100.00
8890;BME280;4481;43.406;24.454;2023-02-13T01:39:00;80011.53;;;-144.09;100.00
8890;BME280;4481;43.406;24.454;2023-02-13T01:41:26;80040.81;;;-144.09;100.00
8890;BME280;4481;43.406;24.454;2023-02-13T01:43:55;80061.72;;;-144.09;100.00
8890;BME280;4481;43.406;24.454;2023-02-13T01:46:26;80076.38;;;-144.09;100.00
8890;BME280;4481;43.406;24.454;2023-02-13T01:48:57;80080.56;;;-144.09;100.00
8890;BME280;4481;43.406;24.454;2023-02-13T01:51:28;80095.19;;;-144.09;100.00
8890;BME280;4481;43.406;24.454;2023-02-13T01:53:59;80084.75;;;-144.09;100.00
8890;BME280;4481;43.406;24.454;2023-02-13T01:56:31;80097.28;;;-144.09;100.00
8890;BME280;4481;43.406;24.454;2023-02-13T01:59:00;80074.28;;;-144.09;100.00
8890;BME280;4481;43.406;24.454;2023-02-13T02:01:30;80057.56;;;-144.09;100.00
8890;BME280;4481;43.406;24.454;2023-02-13T02:04:00;80070.09;;;-144.09;100.00
8890;BME280;4481;43.406;24.454;2023-02-13T02:06:35;80084.75;;;-144.09;100.00
8890;BME280;4481;43.406;24.454;2023-02-13T02:09:07;80084.75;;;-144.09;100.00
8890;BME280;4481;43.406;24.454;2023-02-13T02:11:40;80116.13;;;-144.09;100.00
8890;BME280;4481;43.406;24.454;2023-02-13T02:14:07;80145.41;;;-144.09;100.00
8890;BME280;4481;43.406;24.454;2023-02-13T02:16:33;80147.50;;;-144.09;100.00
8890;BME280;4481;43.406;24.454;2023-02-13T02:19:01;80147.50;;;-144.09;100.00
8890;BME280;4481;43.406;24.454;2023-02-13T02:21:52;80155.88;;;-144.09;100.00
8890;BME280;4481;43.406;24.454;2023-02-13T02:34:02;80180.97;;;-144.09;100.00
8890;BME280;4481;43.406;24.454;2023-02-13T02:36:44;80193.50;;;-144.09;100.00
8890;BME280;4481;43.406;24.454;2023-02-13T02:39:25;80178.88;;;-144.09;100.00
8890;BME280;4481;43.406;24.454;2023-02-13T02:42:03;80201.88;;;-144.09;100.00
8890;BME280;4481;43.406;24.454;2023-02-13T02:44:39;80237.44;;;-144.09;100.00
8890;BME280;4481;43.406;24.454;2023-02-13T02:47:12;80216.53;;;-144.09;100.00
8890;BME280;4481;43.406;24.454;2023-02-13T02:50:18;80224.88;;;-144.09;100.00
8890;BME280;4481;43.406;24.454;2023-02-13T02:53:00;80220.72;;;-144.09;100.00
8890;BME280;4481;43.406;24.454;2023-02-13T02:55:36;80241.63;;;-144.09;100.00
8890;BME280;4481;43.406;24.454;2023-02-13T02:58:10;80256.25;;;-144.09;100.00
8890;BME280;4481;43.406;24.454;2023-02-13T03:00:58;80254.19;;;-144.09;100.00
8890;BME280;4481;43.406;24.454;2023-02-13T03:03:44;80266.72;;;-144.09;100.00
8890;BME280;4481;43.406;24.454;2023-02-13T03:06:34;80287.66;;;-144.09;100.00
8890;BME280;4481;43.406;24.454;2023-02-13T03:09:05;80293.91;;;-144.09;100.00
8890;BME280;4481;43.406;24.454;2023-02-13T03:11:54;80308.56;;;-144.09;100.00
8890;BME280;4481;43.406;24.454;2023-02-13T03:14:40;80304.38;;;-144.09;100.00
8890;BME280;4481;43.406;24.454;2023-02-13T03:17:09;80293.91;;;-144.09;100.00
8890;BME280;4481;43.406;24.454;2023-02-13T03:20:00;80321.13;;;-144.09;100.00
8890;BME280;4481;43.406;24.454;2023-02-13T03:22:57;80325.28;;;-144.09;100.00
8890;BME280;4481;43.406;24.454;2023-02-13T03:25:28;80337.84;;;-144.09;100.00
8890;BME280;4481;43.406;24.454;2023-02-13T03:28:05;80348.31;;;-144.09;100.00
8890;BME280;4481;43.406;24.454;2023-02-13T03:30:57;80350.41;;;-144.09;100.00
8890;BME280;4481;43.406;24.454;2023-02-13T03:33:44;80337.84;;;-144.09;100.00
8890;BME280;4481;43.406;24.454;2023-02-13T03:36:18;80339.94;;;-144.09;100.00
8890;BME280;4481;43.406;24.454;2023-02-13T03:39:08;80335.75;;;-144.09;100.00
8890;BME280;4481;43.406;24.454;2023-02-13T03:41:39;80335.75;;;-144.09;100.00
8890;BME280;4481;43.406;24.454;2023-02-13T03:44:12;80346.22;;;-144.09;100.00
8890;BME280;4481;43.406;24.454;2023-02-13T03:46:44;80356.69;;;-144.09;100.00
8890;BME280;4481;43.406;24.454;2023-02-13T03:49:16;80369.22;;;-144.09;100.00
8890;BME280;4481;43.406;24.454;2023-02-13T03:52:06;80392.25;;;-144.09;100.00
8890;BME280;4481;43.406;24.454;2023-02-13T03:54:40;80375.50;;;-144.09;100.00
8890;BME280;4481;43.406;24.454;2023-02-13T03:57:28;80358.78;;;-144.09;100.00
8890;BME280;4481;43.406;24.454;2023-02-13T04:00:16;80381.78;;;-144.09;100.00
8890;BME280;4481;43.406;24.454;2023-02-13T04:02:48;80390.16;;;-144.09;100.00
8890;BME280;4481;43.406;24.454;2023-02-13T04:05:20;80396.41;;;-144.09;100.00
8890;BME280;4481;43.406;24.454;2023-02-13T04:07:47;80402.69;;;-144.09;100.00
8890;BME280;4481;43.406;24.454;2023-02-13T04:12:50;80413.16;;;-144.09;100.00
8890;BME280;4481;43.406;24.454;2023-02-13T04:15:19;80417.34;;;-144.09;100.00
8890;BME280;4481;43.406;24.454;2023-02-13T04:17:51;80438.25;;;-144.09;100.00
8890;BME280;4481;43.406;24.454;2023-02-13T04:20:19;80440.34;;;-144.09;100.00
8890;BME280;4481;43.406;24.454;2023-02-13T04:22:46;80440.34;;;-144.09;100.00
8890;BME280;4481;43.406;24.454;2023-02-13T04:25:15;80444.53;;;-144.09;100.00
8890;BME280;4481;43.406;24.454;2023-02-13T04:27:42;80444.53;;;-144.09;100.00
8890;BME280;4481;43.406;24.454;2023-02-13T04:30:09;80431.97;;;-144.09;100.00
8890;BME280;4481;43.406;24.454;2023-02-13T04:32:36;80457.09;;;-144.09;100.00
8890;BME280;4481;43.406;24.454;2023-02-13T04:35:02;80467.53;;;-144.09;100.00
8890;BME280;4481;43.406;24.454;2023-02-13T04:37:28;80486.38;;;-144.09;100.00
8890;BME280;4481;43.406;24.454;2023-02-13T04:39:54;80471.72;;;-144.09;100.00
8890;BME280;4481;43.406;24.454;2023-02-13T04:42:21;80471.72;;;-144.09;100.00
8890;BME280;4481;43.406;24.454;2023-02-13T04:44:47;80463.38;;;-144.09;100.00
8890;BME280;4481;43.406;24.454;2023-02-13T04:47:13;80465.47;;;-144.09;100.00
8890;BME280;4481;43.406;24.454;2023-02-13T04:49:39;80457.09;;;-144.09;100.00
8890;BME280;4481;43.406;24.454;2023-02-13T04:52:06;80467.53;;;-144.09;100.00
8890;BME280;4481;43.406;24.454;2023-02-13T04:54:32;80478.00;;;-144.09;100.00
8890;BME280;4481;43.406;24.454;2023-02-13T04:56:58;80490.56;;;-144.09;100.00
8890;BME280;4481;43.406;24.454;2023-02-13T04:59:25;80494.75;;;-144.09;100.00
8890;BME280;4481;43.406;24.454;2023-02-13T05:01:51;80494.75;;;-144.09;100.00
8890;BME280;4481;43.406;24.454;2023-02-13T05:04:17;80486.38;;;-144.09;100.00
8890;BME280;4481;43.406;24.454;2023-02-13T05:06:43;80475.91;;;-144.09;100.00
8890;BME280;4481;43.406;24.454;2023-02-13T05:09:10;80490.56;;;-144.09;100.00
8890;BME280;4481;43.406;24.454;2023-02-13T05:11:36;80501.03;;;-144.09;100.00
8890;BME280;4481;43.406;24.454;2023-02-13T05:14:02;80498.94;;;-144.09;100.00
8890;BME280;4481;43.406;24.454;2023-02-13T05:16:29;80501.03;;;-144.09;100.00
8890;BME280;4481;43.406;24.454;2023-02-13T05:18:55;80507.28;;;-144.09;100.00
8890;BME280;4481;43.406;24.454;2023-02-13T05:21:21;80511.47;;;-144.09;100.00
8890;BME280;4481;43.406;24.454;2023-02-13T05:24:14;80517.75;;;-144.09;100.00
8890;BME280;4481;43.406;24.454;2023-02-13T05:26:40;80524.03;;;-144.09;100.00
8890;BME280;4481;43.406;24.454;2023-02-13T05:29:07;80542.84;;;-144.09;100.00
8890;BME280;4481;43.406;24.454;2023-02-13T05:31:49;80534.50;;;-144.09;100.00
8890;BME280;4481;43.406;24.454;2023-02-13T05:34:16;80528.22;;;-144.09;100.00
8890;BME280;4481;43.406;24.454;2023-02-13T05:36:42;80528.22;;;-144.09;100.00
8890;BME280;4481;43.406;24.454;2023-02-13T05:39:08;80526.13;;;-144.09;100.00
8890;BME280;4481;43.406;24.454;2023-02-13T05:41:34;80521.94;;;-144.09;100.00
8890;BME280;4481;43.406;24.454;2023-02-13T05:44:01;80507.28;;;-144.09;100.00
8890;BME280;4481;43.406;24.454;2023-02-13T05:46:27;80494.75;;;-144.09;100.00
8890;BME280;4481;43.406;24.454;2023-02-13T05:48:54;80501.03;;;-144.09;100.00
8890;BME280;4481;43.406;24.454;2023-02-13T05:51:20;80515.66;;;-144.09;100.00
8890;BME280;4481;43.406;24.454;2023-02-13T05:53:46;80511.47;;;-144.09;100.00
8890;BME280;4481;43.406;24.454;2023-02-13T05:56:12;80498.94;;;-144.09;100.00
8890;BME280;4481;43.406;24.454;2023-02-13T05:58:38;80494.75;;;-144.09;100.00
8890;BME280;4481;43.406;24.454;2023-02-13T06:01:05;80494.75;;;-144.09;100.00
8890;BME280;4481;43.406;24.454;2023-02-13T06:03:31;80488.47;;;-144.09;100.00
8890;BME280;4481;43.406;24.454;2023-02-13T06:05:58;80469.63;;;-144.09;100.00
8890;BME280;4481;43.406;24.454;2023-02-13T06:08:27;80452.91;;;-144.09;100.00
8890;BME280;4481;43.406;24.454;2023-02-13T06:10:55;80452.91;;;-144.09;100.00
8890;BME280;4481;43.406;24.454;2023-02-13T06:13:21;80455.00;;;-144.09;100.00
8890;BME280;4481;43.406;24.454;2023-02-13T06:15:47;80446.63;;;-144.09;100.00
8890;BME280;4481;43.406;24.454;2023-02-13T06:18:15;80425.72;;;-144.09;100.00
8890;BME280;4481;43.406;24.454;2023-02-13T06:20:41;80390.16;;;-144.09;100.00
8890;BME280;4481;43.406;24.454;2023-02-13T06:23:08;80385.97;;;-144.09;100.00
8890;BME280;4481;43.406;24.454;2023-02-13T06:25:35;80396.41;;;-144.09;100.00
8890;BME280;4481;43.406;24.454;2023-02-13T06:28:03;80392.25;;;-144.09;100.00
8890;BME280;4481;43.406;24.454;2023-02-13T06:30:30;80396.41;;;-144.09;100.00
8890;BME280;4481;43.406;24.454;2023-02-13T06:32:56;80379.69;;;-144.09;100.00
8890;BME280;4481;43.406;24.454;2023-02-13T06:35:22;80375.50;;;-144.09;100.00
8890;BME280;4481;43.406;24.454;2023-02-13T06:37:49;80356.69;;;-144.09;100.00
8890;BME280;4481;43.406;24.454;2023-02-13T06:40:16;80354.59;;;-144.09;100.00
8890;BME280;4481;43.406;24.454;2023-02-13T06:42:42;80335.75;;;-144.09;100.00
8890;BME280;4481;43.406;24.454;2023-02-13T06:45:09;80304.38;;;-144.09;100.00
8890;BME280;4481;43.406;24.454;2023-02-13T06:47:35;80287.66;;;-144.09;100.00
8890;BME280;4481;43.406;24.454;2023-02-13T06:50:06;80270.91;;;-144.09;100.00
8890;BME280;4481;43.406;24.454;2023-02-13T06:52:32;80243.72;;;-144.09;100.00
8890;BME280;4481;43.406;24.454;2023-02-13T06:54:59;80187.25;;;-144.09;100.00
8890;BME280;4481;43.406;24.454;2023-02-13T06:57:26;80160.03;;;-144.09;100.00
8890;BME280;4481;43.406;24.454;2023-02-13T06:59:54;80147.50;;;-144.09;100.00
8890;BME280;4481;43.406;24.454;2023-02-13T07:02:20;80118.22;;;-144.09;100.00
8890;BME280;4481;43.406;24.454;2023-02-13T07:04:46;80109.84;;;-144.09;100.00
8890;BME280;4481;43.406;24.454;2023-02-13T07:07:13;80070.09;;;-144.09;100.00
8890;BME280;4481;43.406;24.454;2023-02-13T07:09:39;80047.09;;;-144.09;100.00
8890;BME280;4481;43.406;24.454;2023-02-13T07:12:06;80024.09;;;-144.09;100.00
8890;BME280;4481;43.406;24.454;2023-02-13T07:14:33;79994.81;;;-144.09;100.00
8890;BME280;4481;43.406;24.454;2023-02-13T07:16:59;79963.44;;;-144.09;100.00
8890;BME280;4481;43.406;24.454;2023-02-13T07:19:25;79932.06;;;-144.09;100.00
8890;BME280;4481;43.406;24.454;2023-02-13T07:21:51;79906.94;;;-144.09;100.00
8890;BME280;4481;43.406;24.454;2023-02-13T07:24:18;79886.03;;;-144.09;100.00
8890;BME280;4481;43.406;24.454;2023-02-13T07:26:44;79865.13;;;-144.09;100.00
8890;BME280;4481;43.406;24.454;2023-02-13T07:29:10;79837.94;;;-144.09;100.00
8890;BME280;4481;43.406;24.454;2023-02-13T07:31:37;79819.09;;;-144.09;99.27
8890;BME280;4481;43.406;24.454;2023-02-13T07:34:04;79800.28;;;-144.09;98.62
8890;BME280;4481;43.406;24.454;2023-02-13T07:36:30;79775.19;;;-144.09;97.73
8890;BME280;4481;43.406;24.454;2023-02-13T07:38:56;79760.53;;;-144.09;97.31
8890;BME280;4481;43.406;24.454;2023-02-13T07:41:24;79754.28;;;-144.09;97.05
8890;BME280;4481;43.406;24.454;2023-02-13T07:43:51;79745.91;;;-144.09;96.98
8890;BME280;4481;43.406;24.454;2023-02-13T07:46:17;79716.63;;;-144.09;96.56
8890;BME280;4481;43.406;24.454;2023-02-13T07:48:47;79716.63;;;-144.09;96.56
8890;BME280;4481;43.406;24.454;2023-02-13T07:51:13;79708.25;;;-144.09;96.30
8890;BME280;4481;43.406;24.454;2023-02-13T07:53:40;79689.44;;;-144.09;95.89
8890;BME280;4481;43.406;24.454;2023-02-13T07:56:07;79662.25;;;-144.09;95.50
8890;BME280;4481;43.406;24.454;2023-02-13T07:58:34;79635.06;;;-144.09;94.38
8890;BME280;4481;43.406;24.454;2023-02-13T08:01:05;79607.88;;;-144.09;93.96
8890;BME280;4481;43.406;24.454;2023-02-13T08:03:32;79580.69;;;-144.09;93.89
8890;BME280;4481;43.406;24.454;2023-02-13T08:05:59;79570.22;;;-144.09;93.43
8890;BME280;4481;43.406;24.454;2023-02-13T08:08:25;79566.03;;;-144.09;93.12
8890;BME280;4481;43.406;24.454;2023-02-13T08:10:51;79549.31;;;-144.09;93.02
8890;BME280;4481;43.406;24.454;2023-02-13T08:13:36;79536.75;;;-144.09;92.66
8890;BME280;4481;43.406;24.454;2023-02-13T08:16:02;79524.22;;;-144.09;92.28
8890;BME280;4481;43.406;24.454;2023-02-13T08:18:28;79511.66;;;-144.09;91.88
8890;BME280;4481;43.406;24.454;2023-02-13T08:20:55;79492.84;;;-144.09;91.74
8890;BME280;4481;43.406;24.454;2023-02-13T08:23:21;79474.03;;;-144.09;91.45
8890;BME280;4481;43.406;24.454;2023-02-13T08:25:48;79507.47;;;-144.09;91.28
8890;BME280;4481;43.406;24.454;2023-02-13T08:28:14;79515.84;;;-144.09;91.68
8890;BME280;4481;43.406;24.454;2023-02-13T08:30:40;79494.94;;;-144.09;91.37
8890;BME280;4481;43.406;24.454;2023-02-13T08:33:06;79476.09;;;-144.09;90.94
8890;BME280;4481;43.406;24.454;2023-02-13T08:35:33;79465.66;;;-144.09;90.72
8890;BME280;4481;43.406;24.454;2023-02-13T08:38:01;79461.47;;;-144.09;90.87
8890;BME280;4481;43.406;24.454;2023-02-13T08:40:28;79465.66;;;-144.09;91.58
8890;BME280;4481;43.406;24.454;2023-02-13T08:42:58;79459.38;;;-144.09;91.96
8890;BME280;4481;43.406;24.454;2023-02-13T08:45:25;79451.00;;;-144.09;90.81
8890;BME280;4481;43.406;24.454;2023-02-13T08:47:55;79444.75;;;-144.09;90.56
8890;BME280;4481;43.406;24.454;2023-02-13T08:50:21;79432.19;;;-144.09;90.03
8890;BME280;4481;43.406;24.454;2023-02-13T08:52:48;79440.56;;;-144.09;89.00
8890;BME280;4481;43.406;24.454;2023-02-13T08:55:14;79444.75;;;-144.09;88.27
8890;BME280;4481;43.406;24.454;2023-02-13T08:57:42;79461.47;;;-144.09;88.85
8890;BME280;4481;43.406;24.454;2023-02-13T09:00:09;79455.19;;;-144.09;88.83
8890;BME280;4481;43.406;24.454;2023-02-13T09:02:35;79463.56;;;-144.09;89.46
8890;BME280;4481;43.406;24.454;2023-02-13T09:05:01;79465.66;;;-144.09;90.07
8890;BME280;4481;43.406;24.454;2023-02-13T09:07:27;79436.38;;;-144.09;88.92
8890;BME280;4481;43.406;24.454;2023-02-13T09:09:53;79409.19;;;-144.09;88.60
8890;BME280;4481;43.406;24.454;2023-02-13T09:12:19;79398.72;;;-144.09;87.43
8890;BME280;4481;43.406;24.454;2023-02-13T09:14:47;79409.19;;;-144.09;88.54
8890;BME280;4481;43.406;24.454;2023-02-13T09:17:13;79409.19;;;-144.09;88.62
8890;BME280;4481;43.406;24.454;2023-02-13T09:19:42;79396.63;;;-144.09;88.24
8890;BME280;4481;43.406;24.454;2023-02-13T09:22:10;79386.19;;;-144.09;88.29
8890;BME280;4481;43.406;24.454;2023-02-13T09:24:36;79384.09;;;-144.09;87.62
8890;BME280;4481;43.406;24.454;2023-02-13T09:27:03;79359.00;;;-144.09;87.78
8890;BME280;4481;43.406;24.454;2023-02-13T09:29:29;79348.53;;;-144.09;87.39
8890;BME280;4481;43.406;24.454;2023-02-13T09:32:00;79352.72;;;-144.09;86.18
8890;BME280;4481;43.406;24.454;2023-02-13T09:34:26;79331.81;;;-144.09;85.88
8890;BME280;4481;43.406;24.454;2023-02-13T09:36:52;79346.44;;;-144.09;85.39
8890;BME280;4481;43.406;24.454;2023-02-13T09:39:19;79336.00;;;-144.09;85.08
8890;BME280;4481;43.406;24.454;2023-02-13T09:41:48;79344.34;;;-144.09;84.26
8890;BME280;4481;43.406;24.454;2023-02-13T09:44:18;79336.00;;;-144.09;84.65
8890;BME280;4481;43.406;24.454;2023-02-13T09:47:00;79350.63;;;-144.09;85.36
8890;BME280;4481;43.406;24.454;2023-02-13T09:49:31;79386.19;;;-144.09;86.35
8890;BME280;4481;43.406;24.454;2023-02-13T09:51:58;79438.47;;;-144.09;88.24
8890;BME280;4481;43.406;24.454;2023-02-13T09:54:24;79409.19;;;-144.09;87.98
8890;BME280;4481;43.406;24.454;2023-02-13T09:56:56;79428.00;;;-144.09;88.17
8890;BME280;4481;43.406;24.454;2023-02-13T09:59:36;79415.47;;;-144.09;88.33
8890;BME280;4481;43.406;24.454;2023-02-13T10:02:21;79398.72;;;-144.09;87.98
8890;BME280;4481;43.406;24.454;2023-02-13T10:04:53;79415.47;;;-144.09;88.06
8890;BME280;4481;43.406;24.454;2023-02-13T10:07:26;79411.28;;;-144.09;88.33
8890;BME280;4481;43.406;24.454;2023-02-13T10:10:01;79405.00;;;-144.09;87.77
8890;BME280;4481;43.406;24.454;2023-02-13T10:15:29;79392.47;;;-144.09;88.52
8890;BME280;4481;43.406;24.454;2023-02-13T10:18:02;79363.19;;;-144.09;87.11
8890;BME280;4481;43.406;24.454;2023-02-13T10:20:33;79333.91;;;-144.09;87.29
8890;BME280;4481;43.406;24.454;2023-02-13T10:23:11;79323.44;;;-144.09;87.29
8890;BME280;4481;43.406;24.454;2023-02-13T10:25:46;79350.63;;;-144.09;87.60
8890;BME280;4481;43.406;24.454;2023-02-13T10:28:18;79344.34;;;-144.09;87.34
8890;BME280;4481;43.406;24.454;2023-02-13T10:30:51;79310.91;;;-144.09;86.65
8890;BME280;4481;43.406;24.454;2023-02-13T10:33:24;79319.25;;;-144.09;87.96
8890;BME280;4481;43.406;24.454;2023-02-13T10:35:55;79321.34;;;-144.09;88.56
8890;BME280;4481;43.406;24.454;2023-02-13T10:38:26;79302.53;;;-144.09;86.71
8890;BME280;4481;43.406;24.454;2023-02-13T10:41:22;79290.00;;;-144.09;87.23
8890;BME280;4481;43.406;24.454;2023-02-13T10:43:58;79277.44;;;-144.09;86.70
8890;BME280;4481;43.406;24.454;2023-02-13T10:46:33;79323.44;;;-144.09;88.16
8890;BME280;4481;43.406;24.454;2023-02-13T10:49:22;79313.00;;;-144.09;87.37
8890;BME280;4481;43.406;24.454;2023-02-13T10:51:57;79304.63;;;-144.09;87.21
8890;BME280;4481;43.406;24.454;2023-02-13T10:54:44;79275.34;;;-144.09;86.45
8890;BME280;4481;43.406;24.454;2023-02-13T10:57:17;79239.78;;;-144.09;85.54
8890;BME280;4481;43.406;24.454;2023-02-13T10:59:57;79246.06;;;-144.09;86.05
8890;BME280;4481;43.406;24.454;2023-02-13T11:02:26;79248.16;;;-144.09;86.38
8890;BME280;4481;43.406;24.454;2023-02-13T11:04:58;79231.44;;;-144.09;85.63
8890;BME280;4481;43.406;24.454;2023-02-13T11:07:25;79233.53;;;-144.09;85.13
8890;BME280;4481;43.406;24.454;2023-02-13T11:09:54;79254.44;;;-144.09;85.33
8890;BME280;4481;43.406;24.454;2023-02-13T11:12:26;79269.06;;;-144.09;85.33
8890;BME280;4481;43.406;24.454;2023-02-13T11:14:54;79241.88;;;-144.09;85.51
8890;BME280;4481;43.406;24.454;2023-02-13T11:17:21;79229.34;;;-144.09;85.56
8890;BME280;4481;43.406;24.454;2023-02-13T11:19:51;79246.06;;;-144.09;85.23
8890;BME280;4481;43.406;24.454;2023-02-13T11:22:28;79235.63;;;-144.09;85.33
8890;BME280;4481;43.406;24.454;2023-02-13T11:24:59;79214.72;;;-144.09;85.34
8890;BME280;4481;43.406;24.454;2023-02-13T11:27:29;79206.34;;;-144.09;84.77
8890;BME280;4481;43.406;24.454;2023-02-13T11:29:58;79206.34;;;-144.09;85.08
8890;BME280;4481;43.406;24.454;2023-02-13T11:32:26;79195.88;;;-144.09;85.20
8890;BME280;4481;43.406;24.454;2023-02-13T11:34:52;79210.53;;;-144.09;83.91
8890;BME280;4481;43.406;24.454;2023-02-13T11:37:23;79206.34;;;-144.09;83.36
8890;BME280;4481;43.406;24.454;2023-02-13T11:39:51;79172.88;;;-144.09;83.61
8890;BME280;4481;43.406;24.454;2023-02-13T11:42:23;79189.59;;;-144.09;83.33
8890;BME280;4481;43.406;24.454;2023-02-13T11:44:52;79197.97;;;-144.09;83.29
8890;BME280;4481;43.406;24.454;2023-02-13T11:47:31;79200.06;;;-144.09;83.47
8890;BME280;4481;43.406;24.454;2023-02-13T11:49:58;79200.06;;;-144.09;83.64
8890;BME280;4481;43.406;24.454;2023-02-13T11:52:27;79200.06;;;-144.09;84.20
8890;BME280;4481;43.406;24.454;2023-02-13T11:54:59;79168.69;;;-144.09;83.51
8890;BME280;4481;43.406;24.454;2023-02-13T11:57:29;79168.69;;;-144.09;83.75
8890;BME280;4481;43.406;24.454;2023-02-13T11:59:56;79162.44;;;-144.09;83.81
8890;BME280;4481;43.406;24.454;2023-02-13T12:02:24;79149.88;;;-144.09;83.78
8890;BME280;4481;43.406;24.454;2023-02-13T12:04:51;79139.44;;;-144.09;83.99
8890;BME280;4481;43.406;24.454;2023-02-13T12:07:20;79128.97;;;-144.09;82.27
8890;BME280;4481;43.406;24.454;2023-02-13T12:09:50;79122.69;;;-144.09;82.52
8890;BME280;4481;43.406;24.454;2023-02-13T12:12:25;79103.88;;;-144.09;83.63
8890;BME280;4481;43.406;24.454;2023-02-13T12:14:52;79105.97;;;-144.09;83.92
8890;BME280;4481;43.406;24.454;2023-02-13T12:17:22;79097.59;;;-144.09;83.05
8890;BME280;4481;43.406;24.454;2023-02-13T12:19:51;79093.41;;;-144.09;83.94
8890;BME280;4481;43.406;24.454;2023-02-13T12:22:29;79095.50;;;-144.09;83.08
8890;BME280;4481;43.406;24.454;2023-02-13T12:25:17;79076.69;;;-144.09;82.10
8890;BME280;4481;43.406;24.454;2023-02-13T12:28:00;79093.41;;;-144.09;83.44
8890;BME280;4481;43.406;24.454;2023-02-13T12:31:00;79087.16;;;-144.09;82.53
8890;BME280;4481;43.406;24.454;2023-02-13T12:33:52;79087.16;;;-144.09;82.35
8890;BME280;4481;43.406;24.454;2023-02-13T12:36:27;79097.59;;;-144.09;82.80
8890;BME280;4481;43.406;24.454;2023-02-13T12:39:08;79095.50;;;-144.09;82.72
8890;BME280;4481;43.406;24.454;2023-02-13T12:41:48;79068.31;;;-144.09;83.05
8890;BME280;4481;43.406;24.454;2023-02-13T12:44:28;79070.41;;;-144.09;82.45
8890;BME280;4481;43.406;24.454;2023-02-13T12:47:05;79082.97;;;-144.09;83.29
8890;BME280;4481;43.406;24.454;2023-02-13T12:49:48;79049.50;;;-144.09;82.70
8890;BME280;4481;43.406;24.454;2023-02-13T12:52:30;79018.13;;;-144.09;82.88
8890;BME280;4481;43.406;24.454;2023-02-13T12:55:12;79009.78;;;-144.09;82.87
8890;BME280;4481;43.406;24.454;2023-02-13T12:57:50;78984.69;;;-144.09;82.24
8890;BME280;4481;43.406;24.454;2023-02-13T13:00:28;78982.59;;;-144.09;82.41
8890;BME280;4481;43.406;24.454;2023-02-13T13:06:28;78953.31;;;-144.09;82.43
8890;BME280;4481;43.406;24.454;2023-02-13T13:09:16;78957.50;;;-144.09;81.72
8890;BME280;4481;43.406;24.454;2023-02-13T13:14:41;78955.41;;;-144.09;81.96
8890;BME280;4481;43.406;24.454;2023-02-13T13:17:19;78970.03;;;-144.09;82.69
8890;BME280;4481;43.406;24.454;2023-02-13T13:19:52;78984.69;;;-144.09;83.18
8890;BME280;4481;43.406;24.454;2023-02-13T13:22:24;78982.59;;;-144.09;83.85
8890;BME280;4481;43.406;24.454;2023-02-13T13:25:02;78982.59;;;-144.09;83.53